Time;durP1;ratioP1;P1;durP2;ratioP2;P2;SDS_P1;SDS_P2;PMS_P1;PMS_P2;Temp;Humidity;BMP_temperature;BMP_pressure;BME280_temperature;BME280_humidity;BME280_pressure;Samples;Min_cycle;Max_cycle;Signal;HPM_P1;HPM_P2
2022/10/08 00:02:37;;;;;;;58.55;25.10;;;7.70;99.90;;;;;;8256687;28;20030;-82
2022/10/08 00:06:38;;;;;;;60.30;26.60;;;7.60;99.90;;;;;;8264834;28;20439;-82
2022/10/08 00:10:38;;;;;;;62.65;28.23;;;7.60;99.90;;;;;;8264290;28;20145;-83
2022/10/08 00:14:39;;;;;;;58.40;27.60;;;7.70;99.90;;;;;;8263857;28;20022;-83
2022/10/08 00:23:37;;;;;;;59.60;26.90;;;7.80;99.90;;;;;;8266827;28;20054;-82
2022/10/08 00:27:38;;;;;;;53.35;27.23;;;7.70;99.90;;;;;;8270331;28;20015;-82
2022/10/08 00:31:42;;;;;;;70.65;28.70;;;7.80;99.90;;;;;;8271049;28;20121;-83
2022/10/08 00:35:43;;;;;;;59.75;27.30;;;7.70;99.90;;;;;;8270599;28;20037;-83
2022/10/08 00:39:43;;;;;;;60.83;27.15;;;7.70;99.90;;;;;;8269959;28;20501;-83
2022/10/08 00:43:50;;;;;;;64.18;27.58;;;7.70;99.90;;;;;;8270564;28;20022;-82
2022/10/08 00:47:51;;;;;;;58.35;25.58;;;7.60;99.90;;;;;;8267862;28;20014;-82
2022/10/08 00:51:54;;;;;;;60.95;26.10;;;7.50;99.90;;;;;;8269809;28;20030;-83
2022/10/08 00:55:55;;;;;;;56.65;25.05;;;7.60;99.90;;;;;;8269843;28;20034;-84
2022/10/08 00:59:55;;;;;;;61.40;26.48;;;7.70;99.90;;;;;;8269587;28;20029;-83
2022/10/08 01:04:00;;;;;;;52.38;24.20;;;7.60;99.90;;;;;;8268862;28;20054;-82
2022/10/08 01:13:21;;;;;;;51.63;24.17;;;7.40;99.90;;;;;;8269008;28;20064;-83
2022/10/08 01:17:36;;;;;;;50.72;23.70;;;7.30;99.90;;;;;;8269722;28;20120;-83
2022/10/08 01:22:05;;;;;;;53.35;23.45;;;7.40;99.90;;;;;;8268830;28;20072;-83
2022/10/08 01:26:21;;;;;;;58.50;25.35;;;7.40;99.90;;;;;;8269019;28;20026;-81
2022/10/08 01:30:22;;;;;;;63.13;25.73;;;7.30;99.90;;;;;;8268856;28;20030;-84
2022/10/08 01:34:39;;;;;;;65.10;27.73;;;7.30;99.90;;;;;;8268656;28;20023;-83
2022/10/08 01:38:44;;;;;;;59.90;27.48;;;7.40;99.90;;;;;;8268949;28;20129;-82
2022/10/08 01:42:47;;;;;;;69.65;28.85;;;7.40;99.90;;;;;;8268488;28;20446;-83
2022/10/08 01:46:50;;;;;;;66.72;28.55;;;7.40;99.90;;;;;;8266683;28;20492;-82
2022/10/08 01:51:08;;;;;;;69.13;29.25;;;7.40;99.90;;;;;;8268292;28;20025;-83
2022/10/08 01:55:20;;;;;;;77.53;29.15;;;7.50;99.90;;;;;;8268944;28;20629;-82
2022/10/08 01:59:26;;;;;;;65.28;27.33;;;7.50;99.90;;;;;;8270053;28;20546;-83
2022/10/08 02:03:27;;;;;;;61.42;26.88;;;7.50;99.90;;;;;;8266172;28;20150;-83
2022/10/08 02:07:31;;;;;;;67.20;27.90;;;7.50;99.90;;;;;;8267349;28;20085;-83
2022/10/08 02:11:34;;;;;;;73.07;28.98;;;7.70;99.90;;;;;;8262305;28;20438;-83
2022/10/08 02:15:53;;;;;;;64.00;28.05;;;7.60;99.90;;;;;;8266908;28;20442;-83
2022/10/08 02:20:10;;;;;;;61.63;28.00;;;7.70;99.90;;;;;;8267384;28;20049;-83
2022/10/08 02:24:12;;;;;;;65.22;28.75;;;7.80;99.90;;;;;;8266608;28;20479;-83
2022/10/08 02:28:45;;;;;;;86.15;34.58;;;7.90;99.90;;;;;;8267248;28;20022;-82
2022/10/08 02:33:12;;;;;;;82.63;33.40;;;8.10;99.90;;;;;;8256649;28;20043;-83
2022/10/08 02:37:22;;;;;;;78.32;33.00;;;8.30;99.90;;;;;;8268307;28;20078;-83
2022/10/08 02:41:29;;;;;;;79.97;34.13;;;8.50;99.90;;;;;;8266917;28;20045;-82
2022/10/08 02:45:36;;;;;;;69.22;32.90;;;8.60;99.90;;;;;;8266609;28;20097;-82
2022/10/08 02:49:51;;;;;;;46.85;24.92;;;8.60;99.90;;;;;;8267505;28;20046;-83
2022/10/08 02:53:52;;;;;;;49.25;22.95;;;8.50;99.90;;;;;;8264785;28;20022;-83
2022/10/08 02:58:03;;;;;;;37.45;21.52;;;8.20;99.90;;;;;;8267218;28;20065;-83
2022/10/08 03:02:04;;;;;;;42.97;21.20;;;8.00;99.90;;;;;;8267885;28;20030;-82
2022/10/08 03:06:08;;;;;;;41.58;20.92;;;7.90;99.90;;;;;;8270939;28;20203;-79
2022/10/08 03:10:09;;;;;;;40.70;20.38;;;7.80;99.90;;;;;;8296923;28;20098;-80
2022/10/08 03:14:14;;;;;;;44.05;22.23;;;7.80;99.90;;;;;;8274436;28;20026;-82
2022/10/08 03:18:15;;;;;;;44.70;22.98;;;7.70;99.90;;;;;;8266404;28;20061;-82
2022/10/08 03:22:16;;;;;;;47.88;23.50;;;7.80;99.90;;;;;;8266560;28;20051;-83
2022/10/08 03:26:17;;;;;;;57.92;25.85;;;7.80;99.90;;;;;;8266680;28;20037;-82
2022/10/08 03:30:18;;;;;;;51.80;25.80;;;7.80;99.90;;;;;;8265775;28;20015;-82
2022/10/08 03:34:18;;;;;;;58.08;25.83;;;7.80;99.90;;;;;;8266087;28;20037;-83
2022/10/08 03:38:19;;;;;;;52.55;25.70;;;7.90;99.90;;;;;;8265791;28;20026;-81
2022/10/08 03:42:20;;;;;;;53.08;23.05;;;7.80;99.90;;;;;;8265422;28;20030;-82
2022/10/08 03:46:20;;;;;;;42.78;21.90;;;7.90;99.90;;;;;;8265401;28;20034;-82
2022/10/08 03:50:21;;;;;;;36.60;20.52;;;8.00;99.90;;;;;;8266403;28;20023;-83
2022/10/08 03:54:22;;;;;;;36.30;18.88;;;7.90;99.90;;;;;;8270566;28;20038;-83
2022/10/08 03:58:35;;;;;;;34.63;17.98;;;8.00;99.90;;;;;;8272524;28;20031;-81
2022/10/08 04:02:36;;;;;;;41.47;19.80;;;8.10;99.90;;;;;;8269520;28;20022;-82
2022/10/08 04:06:37;;;;;;;40.58;20.85;;;8.10;99.90;;;;;;8271165;28;20028;-82
2022/10/08 04:10:37;;;;;;;39.97;21.23;;;8.20;99.90;;;;;;8270917;28;20076;-82
2022/10/08 04:14:38;;;;;;;40.95;20.38;;;8.10;99.90;;;;;;8268947;28;20046;-83
2022/10/08 04:18:41;;;;;;;35.70;19.73;;;8.20;99.90;;;;;;8265365;28;20026;-82
2022/10/08 04:22:42;;;;;;;42.30;20.70;;;8.00;99.90;;;;;;8271122;28;20109;-82
2022/10/08 04:26:42;;;;;;;44.05;20.65;;;8.00;99.90;;;;;;8270739;28;20030;-82
2022/10/08 04:31:04;;;;;;;44.30;20.15;;;7.90;99.90;;;;;;8268084;28;20019;-83
2022/10/08 04:35:05;;;;;;;43.45;22.20;;;8.00;99.90;;;;;;8265897;28;20019;-84
2022/10/08 04:39:06;;;;;;;51.33;23.90;;;8.10;99.90;;;;;;8264578;28;20041;-83
2022/10/08 04:48:03;;;;;;;65.65;29.73;;;8.20;99.90;;;;;;8263967;28;20116;-84
2022/10/08 04:52:04;;;;;;;69.40;32.90;;;8.40;99.90;;;;;;8255451;28;20105;-84
2022/10/08 04:56:20;;;;;;;56.05;28.63;;;8.60;99.90;;;;;;8251669;28;20038;-84
2022/10/08 05:00:20;;;;;;;59.00;29.52;;;8.70;99.90;;;;;;8255831;28;20049;-84
2022/10/08 05:04:22;;;;;;;63.03;30.45;;;8.80;99.90;;;;;;8259781;28;20027;-85
2022/10/08 05:08:22;;;;;;;91.25;38.70;;;9.00;99.90;;;;;;8259079;28;20030;-83
2022/10/08 05:12:23;;;;;;;106.55;42.85;;;9.50;99.90;;;;;;8264392;28;20476;-84
2022/10/08 05:16:25;;;;;;;137.32;50.65;;;9.80;99.90;;;;;;8262408;28;20035;-84
2022/10/08 05:20:25;;;;;;;146.30;53.38;;;10.20;99.90;;;;;;8262830;28;20033;-85
2022/10/08 05:24:26;;;;;;;135.88;52.45;;;10.80;99.90;;;;;;8256705;28;20511;-85
2022/10/08 05:28:27;;;;;;;135.98;51.30;;;11.00;99.90;;;;;;8257215;28;20023;-84
2022/10/08 05:32:28;;;;;;;38.13;21.35;;;11.30;99.90;;;;;;8259977;28;20038;-84
2022/10/08 05:36:31;;;;;;;29.92;18.27;;;10.90;99.90;;;;;;8266112;28;20539;-85
2022/10/08 05:40:31;;;;;;;31.30;18.00;;;10.20;99.90;;;;;;8259045;28;20137;-85
2022/10/08 05:44:32;;;;;;;38.60;20.45;;;9.70;99.90;;;;;;8267150;28;20112;-85
2022/10/08 05:48:33;;;;;;;33.50;20.05;;;9.50;99.90;;;;;;8268822;28;20025;-85
2022/10/08 05:52:33;;;;;;;43.45;23.40;;;9.40;99.90;;;;;;8268768;28;20443;-84
2022/10/08 05:56:34;;;;;;;41.58;21.67;;;9.40;99.90;;;;;;8268460;28;20038;-85
2022/10/08 06:00:35;;;;;;;36.25;21.23;;;9.50;99.90;;;;;;8269254;28;20026;-84
2022/10/08 06:04:35;;;;;;;41.90;22.98;;;9.50;99.90;;;;;;8260407;28;20038;-84
2022/10/08 06:08:36;;;;;;;37.00;20.15;;;9.70;99.90;;;;;;8260521;28;20022;-84
2022/10/08 06:12:37;;;;;;;41.25;21.40;;;9.90;99.90;;;;;;8263378;28;20045;-84
2022/10/08 06:16:38;;;;;;;33.78;19.52;;;9.80;99.90;;;;;;8260248;28;20057;-84
2022/10/08 06:20:39;;;;;;;40.08;22.10;;;10.10;99.90;;;;;;8263876;28;20431;-84
2022/10/08 06:24:39;;;;;;;34.28;20.98;;;10.50;99.90;;;;;;8268916;28;20033;-84
2022/10/08 06:28:40;;;;;;;28.80;20.05;;;10.70;99.90;;;;;;8267395;28;20434;-85
2022/10/08 06:32:40;;;;;;;28.58;19.00;;;11.00;99.90;;;;;;8268338;28;20030;-84
2022/10/08 06:36:41;;;;;;;27.83;16.85;;;11.10;99.90;;;;;;8268689;28;20506;-84
2022/10/08 06:40:42;;;;;;;23.75;15.30;;;11.00;99.90;;;;;;8268391;28;20026;-84
2022/10/08 06:44:42;;;;;;;27.00;15.88;;;10.90;99.90;;;;;;8273000;28;20021;-89
2022/10/08 06:48:43;;;;;;;26.60;16.90;;;11.00;99.90;;;;;;8306210;28;20034;-88
2022/10/08 06:52:44;;;;;;;22.25;15.65;;;11.30;99.90;;;;;;8295721;22;20140;-80
2022/10/08 06:56:45;;;;;;;21.60;15.57;;;11.60;99.90;;;;;;8294982;28;20584;-79
2022/10/08 07:00:45;;;;;;;25.98;16.75;;;11.90;99.90;;;;;;8287349;28;20022;-80
2022/10/08 07:04:46;;;;;;;27.50;16.08;;;11.90;99.90;;;;;;8277017;28;20551;-80
2022/10/08 07:08:50;;;;;;;24.10;15.88;;;12.10;99.90;;;;;;8284646;28;20018;-80
2022/10/08 07:12:51;;;;;;;25.35;16.65;;;12.30;99.90;;;;;;8288601;28;20477;-80
2022/10/08 07:16:51;;;;;;;24.30;15.98;;;12.40;99.90;;;;;;8284159;28;20022;-80
2022/10/08 07:20:56;;;;;;;23.50;15.45;;;12.70;99.90;;;;;;8279670;28;20784;-81
2022/10/08 07:24:56;;;;;;;22.08;15.93;;;12.90;99.90;;;;;;8282229;28;20080;-80
2022/10/08 07:29:00;;;;;;;16.08;12.48;;;13.60;99.90;;;;;;8277044;28;20106;-80
2022/10/08 07:33:00;;;;;;;16.60;12.60;;;14.30;99.90;;;;;;8294979;28;20390;-80
2022/10/08 07:37:01;;;;;;;20.08;13.88;;;14.20;99.90;;;;;;8280712;28;20025;-80
2022/10/08 07:41:02;;;;;;;19.70;13.55;;;14.20;99.90;;;;;;8281006;28;20057;-80
2022/10/08 07:45:03;;;;;;;22.83;15.43;;;14.60;99.90;;;;;;8275929;28;20052;-79
2022/10/08 07:49:03;;;;;;;24.02;16.88;;;14.40;99.90;;;;;;8288490;28;20018;-81
2022/10/08 07:53:04;;;;;;;27.45;19.67;;;14.20;99.90;;;;;;8277005;28;20048;-80
2022/10/08 07:57:05;;;;;;;25.10;18.23;;;14.40;99.90;;;;;;8275711;28;20478;-80
2022/10/08 08:01:09;;;;;;;30.17;18.40;;;14.30;99.90;;;;;;8287697;28;20018;-80
2022/10/08 08:05:09;;;;;;;23.75;17.77;;;14.70;99.90;;;;;;8283395;28;20029;-81
2022/10/08 08:09:10;;;;;;;21.73;15.88;;;15.10;99.90;;;;;;8276761;28;20022;-81
2022/10/08 08:13:11;;;;;;;22.20;15.18;;;15.60;99.90;;;;;;8282568;28;20398;-81
2022/10/08 08:17:11;;;;;;;20.60;15.20;;;16.30;99.90;;;;;;8270542;28;20034;-80
2022/10/08 08:21:14;;;;;;;19.13;14.77;;;17.20;99.90;;;;;;8285981;28;20053;-80
2022/10/08 08:25:15;;;;;;;19.27;13.90;;;17.60;99.90;;;;;;8273468;28;20704;-80
2022/10/08 08:29:17;;;;;;;27.98;17.63;;;17.30;99.90;;;;;;8292969;28;20026;-80
2022/10/08 08:33:17;;;;;;;23.95;18.45;;;16.50;99.90;;;;;;8284695;28;20478;-80
2022/10/08 08:37:18;;;;;;;25.52;18.35;;;15.90;99.90;;;;;;8280961;28;20035;-80
2022/10/08 08:41:40;;;;;;;28.73;18.80;;;16.00;99.90;;;;;;8280215;28;20097;-81
2022/10/08 08:45:42;;;;;;;24.00;18.48;;;16.10;99.90;;;;;;8279328;28;20031;-79
2022/10/08 08:49:57;;;;;;;21.92;17.08;;;16.20;99.90;;;;;;8275737;28;20026;-80
2022/10/08 08:53:58;;;;;;;24.25;17.50;;;16.60;99.90;;;;;;8284349;28;20038;-80
2022/10/08 08:58:14;;;;;;;26.20;17.25;;;16.80;99.90;;;;;;8284258;28;20046;-78
2022/10/08 09:02:24;;;;;;;19.90;14.93;;;17.20;99.90;;;;;;8281726;28;20390;-80
2022/10/08 09:06:25;;;;;;;20.92;15.50;;;17.30;99.90;;;;;;8281086;28;20030;-80
2022/10/08 09:10:56;;;;;;;19.48;14.05;;;17.60;99.90;;;;;;8274919;28;20075;-80
2022/10/08 09:15:00;;;;;;;19.02;14.43;;;17.70;99.90;;;;;;8278221;28;20093;-80
2022/10/08 09:19:00;;;;;;;21.42;13.80;;;17.40;99.90;;;;;;8278526;28;20516;-80
2022/10/08 09:23:01;;;;;;;18.13;13.00;;;17.30;99.90;;;;;;8287655;28;20022;-79
2022/10/08 09:27:04;;;;;;;20.02;12.57;;;17.30;99.90;;;;;;8281675;28;20018;-80
2022/10/08 09:31:12;;;;;;;21.10;14.07;;;17.40;99.90;;;;;;8279540;28;20026;-79
2022/10/08 09:35:14;;;;;;;19.73;12.68;;;17.40;99.90;;;;;;8277112;28;20042;-80
2022/10/08 09:39:32;;;;;;;19.38;12.63;;;17.40;99.90;;;;;;8273343;28;20029;-80
2022/10/08 09:43:34;;;;;;;19.38;13.30;;;17.80;99.90;;;;;;8275569;28;20030;-79
2022/10/08 09:47:35;;;;;;;19.23;12.25;;;18.30;99.90;;;;;;8277913;28;20018;-80
2022/10/08 09:51:35;;;;;;;15.90;11.35;;;18.40;99.90;;;;;;8281401;28;20046;-80
2022/10/08 09:55:36;;;;;;;19.55;10.93;;;18.40;99.90;;;;;;8284011;28;20695;-79
2022/10/08 09:59:47;;;;;;;15.85;11.20;;;18.00;99.90;;;;;;8279219;28;20022;-81
2022/10/08 10:04:15;;;;;;;16.77;11.45;;;17.60;99.90;;;;;;8340347;23;20041;-80
2022/10/08 10:08:48;;;;;;;16.90;9.52;;;17.60;99.90;;;;;;8326566;28;20425;-80
2022/10/08 10:12:53;;;;;;;16.48;10.07;;;17.70;99.90;;;;;;8305752;28;20109;-80
2022/10/08 10:17:00;;;;;;;13.18;8.90;;;17.60;99.90;;;;;;8289904;28;20053;-80
2022/10/08 10:21:12;;;;;;;26.67;18.30;;;17.50;99.90;;;;;;8299521;28;20095;-79
2022/10/08 10:25:36;;;;;;;12.55;7.60;;;18.10;99.90;;;;;;8292321;28;20024;-80
2022/10/08 10:30:13;;;;;;;13.32;8.00;;;18.30;99.90;;;;;;8293316;28;20026;-80
2022/10/08 10:34:22;;;;;;;13.40;7.53;;;17.80;99.90;;;;;;8288602;28;20122;-79
2022/10/08 10:38:27;;;;;;;13.85;7.90;;;17.60;99.90;;;;;;8295098;28;20026;-79
2022/10/08 10:42:49;;;;;;;12.60;7.95;;;17.40;99.90;;;;;;8296688;28;20118;-79
2022/10/08 10:46:56;;;;;;;12.25;7.20;;;17.50;99.90;;;;;;8296543;28;20080;-79
2022/10/08 10:51:09;;;;;;;13.63;6.93;;;17.60;99.90;;;;;;8295102;28;20071;-80
2022/10/08 10:55:24;;;;;;;12.68;7.65;;;17.70;99.90;;;;;;8289443;28;20685;-79
2022/10/08 10:59:51;;;;;;;10.65;7.80;;;17.80;99.90;;;;;;8295013;28;20038;-79
2022/10/08 11:04:32;;;;;;;13.55;8.15;;;17.90;99.90;;;;;;8262850;28;20038;-79
2022/10/08 11:08:54;;;;;;;11.75;7.57;;;17.80;99.90;;;;;;8287456;28;20029;-79
2022/10/08 11:13:04;;;;;;;13.20;8.27;;;17.80;99.90;;;;;;8288843;28;20060;-78
2022/10/08 11:17:22;;;;;;;13.30;7.70;;;17.40;99.90;;;;;;8292597;28;20399;-79
2022/10/08 11:21:54;;;;;;;13.77;8.00;;;16.80;99.90;;;;;;8285895;28;20033;-78
2022/10/08 11:25:59;;;;;;;;;;;16.40;99.90;;;;;;8294416;28;20030;-78
2022/10/08 11:30:13;;;;;;;12.48;7.95;;;16.20;99.90;;;;;;8294295;28;19909;-78
2022/10/08 11:34:26;;;;;;;13.65;9.27;;;16.20;99.90;;;;;;8297852;28;20033;-79
2022/10/08 11:38:56;;;;;;;17.95;12.80;;;16.20;99.90;;;;;;8303766;28;20045;-78
2022/10/08 11:43:29;;;;;;;19.70;13.10;;;16.00;99.90;;;;;;8305279;28;20018;-78
2022/10/08 11:47:42;;;;;;;19.67;13.63;;;15.90;99.90;;;;;;8300662;28;20383;-78
2022/10/08 11:51:49;;;;;;;22.45;16.35;;;16.10;99.90;;;;;;8304635;28;20137;-78
2022/10/08 11:55:56;;;;;;;23.05;16.52;;;16.00;99.90;;;;;;8305350;28;20452;-78
2022/10/08 12:00:28;;;;;;;26.00;17.05;;;15.70;99.90;;;;;;8308961;28;20095;-78
2022/10/08 12:04:31;;;;;;;23.58;16.65;;;15.50;99.90;;;;;;8292078;28;20073;-80
2022/10/08 12:08:58;;;;;;;25.02;17.55;;;15.40;99.90;;;;;;8306218;28;20470;-79
2022/10/08 12:13:08;;;;;;;23.83;16.92;;;15.40;99.90;;;;;;8307958;28;20021;-79
2022/10/08 12:17:10;;;;;;;29.80;18.13;;;15.40;99.90;;;;;;8304778;28;20112;-78
2022/10/08 12:21:19;;;;;;;19.67;15.63;;;15.50;99.90;;;;;;8308079;28;20025;-79
2022/10/08 12:25:38;;;;;;;24.58;16.92;;;15.60;99.90;;;;;;8313831;28;20026;-80
2022/10/08 12:30:12;;;;;;;21.10;14.68;;;15.80;99.90;;;;;;8313015;28;20606;-80
2022/10/08 12:34:17;;;;;;;19.98;15.63;;;16.10;99.90;;;;;;8306920;28;20026;-79
2022/10/08 12:38:27;;;;;;;25.20;16.85;;;15.80;99.90;;;;;;8310810;28;20109;-78
2022/10/08 12:42:31;;;;;;;23.23;16.92;;;15.80;99.90;;;;;;8311387;28;20022;-79
2022/10/08 12:46:57;;;;;;;25.50;15.90;;;15.70;99.90;;;;;;8313519;28;20026;-80
2022/10/08 12:51:13;;;;;;;21.05;15.60;;;15.70;99.90;;;;;;8313601;28;20437;-79
2022/10/08 12:55:17;;;;;;;21.40;15.50;;;15.50;99.90;;;;;;8293743;28;20393;-78
2022/10/08 12:59:25;;;;;;;30.88;15.02;;;15.50;99.90;;;;;;8294686;28;20030;-80
2022/10/08 13:03:26;;;;;;;21.80;15.65;;;15.70;99.90;;;;;;8297603;28;21025;-79
2022/10/08 13:07:30;;;;;;;23.35;16.23;;;15.60;99.90;;;;;;8297814;28;20026;-80
2022/10/08 13:11:32;;;;;;;24.00;15.40;;;15.60;99.90;;;;;;8298333;28;20037;-81
2022/10/08 13:15:33;;;;;;;25.30;17.05;;;15.50;99.90;;;;;;8299290;28;20018;-80
2022/10/08 13:19:37;;;;;;;21.70;17.00;;;15.40;99.90;;;;;;8302706;28;20030;-80
2022/10/08 13:23:43;;;;;;;20.15;14.77;;;15.40;99.90;;;;;;8298077;28;20723;-80
2022/10/08 13:27:43;;;;;;;27.23;15.50;;;15.60;99.90;;;;;;8301895;28;20029;-80
2022/10/08 13:31:55;;;;;;;26.15;16.15;;;15.80;99.90;;;;;;8299664;28;20018;-82
2022/10/08 13:35:59;;;;;;;25.52;16.20;;;15.70;99.90;;;;;;8298183;28;20030;-80
2022/10/08 13:40:07;;;;;;;24.35;15.73;;;15.50;99.90;;;;;;8299244;28;20026;-81
2022/10/08 13:44:08;;;;;;;27.02;15.75;;;15.80;99.90;;;;;;8298665;28;20164;-80
2022/10/08 13:48:13;;;;;;;20.10;14.20;;;16.10;99.90;;;;;;8297589;28;20549;-81
2022/10/08 13:52:19;;;;;;;20.50;13.90;;;16.30;99.90;;;;;;8298796;28;20105;-81
2022/10/08 13:56:23;;;;;;;19.85;14.75;;;16.30;99.90;;;;;;8294865;28;20018;-81
2022/10/08 14:00:23;;;;;;;24.73;15.13;;;16.30;99.90;;;;;;8300452;28;20034;-82
2022/10/08 14:04:24;;;;;;;17.50;13.05;;;16.50;99.90;;;;;;8283309;28;20032;-82
2022/10/08 14:08:27;;;;;;;18.38;11.73;;;16.50;99.90;;;;;;8294447;28;20177;-81
2022/10/08 14:12:32;;;;;;;15.02;10.75;;;16.90;99.90;;;;;;8297881;28;20022;-81
2022/10/08 14:16:32;;;;;;;14.98;10.88;;;16.90;99.90;;;;;;8292648;28;20398;-82
2022/10/08 14:20:35;;;;;;;16.33;9.90;;;17.20;99.90;;;;;;8288630;28;20029;-81
2022/10/08 14:24:35;;;;;;;15.52;10.38;;;17.30;99.90;;;;;;8297835;28;20121;-82
2022/10/08 14:28:36;;;;;;;14.88;7.88;;;17.20;99.90;;;;;;8301364;28;20511;-81
2022/10/08 14:32:37;;;;;;;11.65;6.15;;;17.20;99.90;;;;;;8308275;28;20025;-82
2022/10/08 14:36:40;;;;;;;11.82;5.35;;;16.80;99.90;;;;;;8306188;28;20028;-81
2022/10/08 14:40:40;;;;;;;8.20;5.32;;;16.60;99.90;;;;;;8303618;28;20033;-80
2022/10/08 14:44:41;;;;;;;9.35;4.82;;;16.70;99.90;;;;;;8305545;28;20022;-81
2022/10/08 14:48:41;;;;;;;6.60;4.03;;;16.50;99.90;;;;;;8306125;28;20046;-81
2022/10/08 14:52:42;;;;;;;9.40;4.00;;;16.30;99.90;;;;;;8304658;28;20029;-80
2022/10/08 14:56:42;;;;;;;9.80;4.28;;;16.00;99.90;;;;;;8300377;28;20022;-79
2022/10/08 15:00:43;;;;;;;9.02;4.22;;;16.00;99.90;;;;;;8303937;28;20037;-81
2022/10/08 15:04:43;;;;;;;13.70;3.63;;;15.90;99.90;;;;;;8301584;28;20029;-80
2022/10/08 15:08:44;;;;;;;11.80;3.50;;;15.90;99.90;;;;;;8300406;28;20091;-81
2022/10/08 15:12:45;;;;;;;9.95;3.25;;;16.00;99.90;;;;;;8295740;28;20107;-81
2022/10/08 15:16:45;;;;;;;10.40;3.20;;;16.00;99.90;;;;;;8295600;28;20025;-80
2022/10/08 15:20:57;;;;;;;5.63;3.10;;;16.20;99.90;;;;;;8300236;28;20076;-80
2022/10/08 15:24:58;;;;;;;9.07;3.28;;;16.20;99.90;;;;;;8300301;28;20108;-80
2022/10/08 15:29:00;;;;;;;7.82;2.78;;;16.10;99.90;;;;;;8301392;28;20037;-81
2022/10/08 15:33:04;;;;;;;6.95;2.95;;;15.80;99.90;;;;;;8299949;28;20144;-81
2022/10/08 15:37:06;;;;;;;11.48;2.85;;;15.50;99.90;;;;;;8298061;28;20033;-80
2022/10/08 15:41:06;;;;;;;11.23;2.90;;;15.30;99.90;;;;;;8299884;28;20033;-81
2022/10/08 15:45:07;;;;;;;5.60;2.80;;;15.10;99.90;;;;;;8298032;28;20120;-79
2022/10/08 15:49:08;;;;;;;9.43;2.75;;;15.00;99.90;;;;;;8299211;28;20523;-80
2022/10/08 15:53:08;;;;;;;7.70;2.80;;;14.80;99.90;;;;;;8305353;28;20024;-79
2022/10/08 15:57:10;;;;;;;7.55;2.65;;;14.80;99.90;;;;;;8303586;28;20029;-80
2022/10/08 16:01:16;;;;;;;6.28;2.45;;;14.60;99.90;;;;;;8324784;22;20076;-79
2022/10/08 16:05:16;;;;;;;9.50;3.15;;;14.40;99.90;;;;;;8297925;28;20046;-79
2022/10/08 16:09:19;;;;;;;9.40;3.05;;;14.10;99.90;;;;;;8298617;28;20045;-79
2022/10/08 16:13:19;;;;;;;10.52;2.85;;;13.80;99.90;;;;;;8309143;28;20382;-79
2022/10/08 16:17:20;;;;;;;8.18;2.70;;;13.70;99.90;;;;;;8308167;28;20025;-79
2022/10/08 16:21:22;;;;;;;10.02;2.60;;;13.70;99.90;;;;;;8330985;28;20060;-79
2022/10/08 16:25:22;;;;;;;12.00;2.45;;;13.50;99.90;;;;;;8334005;28;20410;-80
2022/10/08 16:29:23;;;;;;;8.45;2.53;;;13.40;99.90;;;;;;8313074;28;20033;-79
2022/10/08 16:33:25;;;;;;;8.88;2.92;;;13.10;99.90;;;;;;8310320;28;20021;-80
2022/10/08 16:37:25;;;;;;;8.15;2.70;;;12.60;99.90;;;;;;8305204;28;20056;-79
2022/10/08 16:41:28;;;;;;;6.78;2.90;;;12.20;99.90;;;;;;8332922;28;20620;-79
2022/10/08 16:45:28;;;;;;;8.35;2.92;;;11.90;99.90;;;;;;8341559;28;20596;-81
2022/10/08 16:49:29;;;;;;;10.70;2.30;;;11.70;99.90;;;;;;8320491;28;20036;-80
2022/10/08 16:53:30;;;;;;;8.25;2.53;;;11.50;99.90;;;;;;8317432;28;20421;-79
2022/10/08 16:57:31;;;;;;;10.30;2.70;;;11.40;99.90;;;;;;8316833;28;20405;-79
2022/10/08 17:01:32;;;;;;;9.35;2.45;;;11.20;99.90;;;;;;8324650;28;20030;-80
2022/10/08 17:05:33;;;;;;;8.25;2.53;;;11.00;99.90;;;;;;8308399;28;20037;-80
2022/10/08 17:09:34;;;;;;;10.60;2.72;;;10.90;99.90;;;;;;8330217;28;20022;-79
2022/10/08 17:13:40;;;;;;;6.72;2.67;;;11.00;99.90;;;;;;8304437;28;20517;-80
2022/10/08 17:17:41;;;;;;;10.25;2.28;;;11.00;99.90;;;;;;8315954;28;20022;-80
2022/10/08 17:21:41;;;;;;;11.55;2.90;;;11.00;99.90;;;;;;8327608;28;20080;-79
2022/10/08 17:25:42;;;;;;;10.70;2.90;;;10.60;99.90;;;;;;8323320;28;20654;-81
2022/10/08 17:29:42;;;;;;;12.38;3.42;;;10.30;99.90;;;;;;8323452;28;20041;-81
2022/10/08 17:33:43;;;;;;;19.05;6.10;;;10.00;99.90;;;;;;8311475;28;20014;-81
2022/10/08 17:37:43;;;;;;;18.00;8.80;;;9.90;99.90;;;;;;8313554;28;20033;-81
2022/10/08 17:41:44;;;;;;;25.13;10.40;;;9.70;99.90;;;;;;8298769;28;20064;-80
2022/10/08 17:45:44;;;;;;;23.90;10.18;;;9.60;99.90;;;;;;8304981;28;20033;-79
2022/10/08 17:49:45;;;;;;;19.10;10.60;;;9.40;99.90;;;;;;8305018;28;20045;-79
2022/10/08 17:54:00;;;;;;;22.70;10.30;;;9.30;99.90;;;;;;8319367;28;20037;-79
2022/10/08 17:58:01;;;;;;;16.73;9.02;;;9.40;99.90;;;;;;8314574;28;20025;-79
2022/10/08 18:02:01;;;;;;;17.75;8.45;;;9.50;99.90;;;;;;8315907;28;20033;-78
2022/10/08 18:06:03;;;;;;;15.15;6.50;;;9.40;99.90;;;;;;8316455;28;20025;-80
2022/10/08 18:10:04;;;;;;;16.42;6.30;;;9.20;99.90;;;;;;8299741;28;20022;-78
2022/10/08 18:14:06;;;;;;;14.73;4.35;;;9.20;99.90;;;;;;8301777;28;20026;-77
2022/10/08 18:18:06;;;;;;;12.20;4.85;;;9.10;99.90;;;;;;8295379;28;20025;-78
2022/10/08 18:22:07;;;;;;;16.42;4.60;;;9.00;99.90;;;;;;8297741;28;20021;-79
2022/10/08 18:26:31;;;;;;;14.27;4.82;;;8.90;99.90;;;;;;8305358;28;20025;-77
2022/10/08 18:30:34;;;;;;;7.72;4.60;;;8.90;99.90;;;;;;8300015;28;20436;-78
2022/10/08 18:34:35;;;;;;;13.02;4.70;;;8.70;99.90;;;;;;8322690;28;20022;-77
2022/10/08 18:38:35;;;;;;;12.30;4.78;;;8.60;99.90;;;;;;8326397;28;20067;-78
2022/10/08 18:42:36;;;;;;;13.63;6.18;;;8.60;99.90;;;;;;8318938;28;20449;-77
2022/10/08 18:46:37;;;;;;;24.88;7.78;;;8.60;99.90;;;;;;8319615;28;20037;-78
2022/10/08 18:50:37;;;;;;;16.30;7.03;;;8.50;99.90;;;;;;8327568;28;20064;-77
2022/10/08 18:54:38;;;;;;;13.55;5.90;;;8.30;99.90;;;;;;8324370;28;20080;-77
2022/10/08 18:58:38;;;;;;;14.27;5.75;;;8.50;99.90;;;;;;8317656;28;20064;-77
2022/10/08 19:02:39;;;;;;;15.63;7.25;;;8.20;99.90;;;;;;8314626;28;20457;-78
2022/10/08 19:06:41;;;;;;;16.67;7.93;;;7.90;99.90;;;;;;8340173;28;20079;-77
2022/10/08 19:10:43;;;;;;;17.38;9.50;;;7.80;99.90;;;;;;8311992;28;20037;-78
2022/10/08 19:14:44;;;;;;;26.23;15.48;;;7.70;99.90;;;;;;8302619;28;20029;-78
2022/10/08 19:18:56;;;;;;;27.52;13.25;;;8.10;99.90;;;;;;8305726;28;20624;-78
2022/10/08 19:22:56;;;;;;;29.95;12.57;;;8.10;99.90;;;;;;8307778;28;20030;-79
2022/10/08 19:26:57;;;;;;;18.15;9.85;;;7.90;99.90;;;;;;8311537;28;20106;-78
2022/10/08 19:30:58;;;;;;;25.00;11.40;;;7.60;99.90;;;;;;8321771;28;20025;-79
2022/10/08 19:34:58;;;;;;;22.83;11.68;;;7.40;99.90;;;;;;8315492;28;20014;-78
2022/10/08 19:39:01;;;;;;;23.70;11.73;;;7.40;99.90;;;;;;8311491;28;20032;-79
2022/10/08 19:43:03;;;;;;;19.60;11.07;;;7.30;99.90;;;;;;8323355;28;20540;-78
2022/10/08 19:47:03;;;;;;;22.45;12.10;;;7.20;99.90;;;;;;8319652;28;20022;-78
2022/10/08 19:51:06;;;;;;;25.58;12.13;;;7.20;99.90;;;;;;8315867;28;20582;-78
2022/10/08 19:55:07;;;;;;;29.38;16.70;;;7.40;99.90;;;;;;8312176;28;20030;-78
2022/10/08 19:59:09;;;;;;;29.83;14.88;;;7.30;99.90;;;;;;8313302;28;20053;-77
2022/10/08 20:03:09;;;;;;;24.17;12.82;;;7.40;99.90;;;;;;8323663;28;20041;-78
2022/10/08 20:07:10;;;;;;;22.05;12.35;;;7.40;99.90;;;;;;8316293;28;20025;-78
2022/10/08 20:11:16;;;;;;;20.05;11.70;;;7.30;99.90;;;;;;8334871;28;20400;-77
2022/10/08 20:15:17;;;;;;;24.55;11.90;;;7.20;99.90;;;;;;8318888;28;20030;-78
2022/10/08 20:19:20;;;;;;;17.52;8.68;;;7.20;99.90;;;;;;8308748;28;20485;-78
2022/10/08 20:23:20;;;;;;;17.30;8.50;;;7.40;99.90;;;;;;8330434;28;20029;-77
2022/10/08 20:27:22;;;;;;;16.90;9.23;;;7.30;99.90;;;;;;8321871;28;20029;-77
2022/10/08 20:31:26;;;;;;;17.25;9.52;;;7.10;99.90;;;;;;8317478;28;20017;-77
2022/10/08 20:35:26;;;;;;;16.23;10.23;;;7.10;99.90;;;;;;8320656;28;20596;-78
2022/10/08 20:39:27;;;;;;;21.02;9.38;;;7.10;99.90;;;;;;8305979;28;20026;-77
2022/10/08 20:43:29;;;;;;;18.40;8.65;;;7.30;99.90;;;;;;8306875;28;20026;-78
2022/10/08 20:47:30;;;;;;;21.52;11.15;;;7.40;99.90;;;;;;8309082;28;20088;-76
2022/10/08 20:51:31;;;;;;;17.30;9.85;;;7.30;99.90;;;;;;8318130;28;20068;-79
2022/10/08 20:55:34;;;;;;;17.05;10.25;;;7.10;99.90;;;;;;8324477;28;20113;-77
2022/10/08 20:59:35;;;;;;;21.05;11.88;;;7.00;99.90;;;;;;8318338;28;20034;-78
2022/10/08 21:03:37;;;;;;;24.70;13.32;;;7.10;99.90;;;;;;8315243;28;20753;-78
2022/10/08 21:07:37;;;;;;;37.95;18.67;;;7.30;99.90;;;;;;8306412;28;20509;-79
2022/10/08 21:11:38;;;;;;;30.02;14.43;;;7.50;99.90;;;;;;8317518;28;20030;-78